createdAt,value
2018-04-06T00:00:13.732Z,86.1
2018-04-06T00:01:15.122Z,86.8
2018-04-06T00:02:16.540Z,86.5
2018-04-06T00:03:17.974Z,86.3
2018-04-06T00:04:19.356Z,86.5
2018-04-06T00:05:20.744Z,86.4
2018-04-06T00:06:22.129Z,86.5
2018-04-06T00:07:23.522Z,86.2
2018-04-06T00:08:24.907Z,86.6
2018-04-06T00:09:26.287Z,86.9
2018-04-06T00:10:27.666Z,87.2
2018-04-06T00:11:29.051Z,87.0
2018-04-06T00:12:30.434Z,87.2
2018-04-06T00:13:31.816Z,87.2
2018-04-06T00:14:33.228Z,87.0
2018-04-06T00:15:34.617Z,86.7
2018-04-06T00:16:36.002Z,87.2
2018-04-06T00:17:37.499Z,87.3
2018-04-06T00:18:38.902Z,87.2
2018-04-06T00:19:40.286Z,87.3
2018-04-06T00:20:41.678Z,87.3
2018-04-06T00:21:43.092Z,87.1
2018-04-06T00:22:44.471Z,87.1
2018-04-06T00:23:45.858Z,86.9
2018-04-06T00:24:47.233Z,87.1
2018-04-06T00:25:48.617Z,87.4
2018-04-06T00:26:50.037Z,87.2
2018-04-06T00:27:51.420Z,87.2
2018-04-06T00:28:52.802Z,87.1
2018-04-06T00:29:54.190Z,87.2
2018-04-06T00:30:55.575Z,86.9
2018-04-06T00:31:56.949Z,87.0
2018-04-06T00:32:58.360Z,86.0
2018-04-06T00:33:59.731Z,86.6
2018-04-06T00:35:01.110Z,86.5
2018-04-06T00:36:02.494Z,86.6
2018-04-06T00:37:03.881Z,86.5
2018-04-06T00:38:05.261Z,86.5
2018-04-06T00:39:06.643Z,86.5
2018-04-06T00:40:08.024Z,86.7
2018-04-06T00:41:09.406Z,86.7
2018-04-06T00:42:10.792Z,86.5
2018-04-06T00:43:12.178Z,86.3
2018-04-06T00:44:13.570Z,86.5
2018-04-06T00:45:14.956Z,86.8
2018-04-06T00:46:16.336Z,86.7
2018-04-06T00:47:17.743Z,86.6
2018-04-06T00:48:19.098Z,86.3
2018-04-06T00:49:20.493Z,86.6
2018-04-06T00:50:21.864Z,86.3
2018-04-06T00:51:23.250Z,86.3
2018-04-06T00:52:24.745Z,86.3
2018-04-06T00:53:26.126Z,86.5
2018-04-06T00:54:27.509Z,86.5
2018-04-06T00:55:28.889Z,86.5
2018-04-06T00:56:30.275Z,86.5
2018-04-06T00:57:31.663Z,86.9
2018-04-06T00:58:33.055Z,87.0
2018-04-06T00:59:34.438Z,87.1
2018-04-06T01:00:35.822Z,87.1
2018-04-06T01:01:37.202Z,86.6
2018-04-06T01:02:38.609Z,86.9
2018-04-06T01:03:39.984Z,87.8
2018-04-06T01:04:41.370Z,87.6
2018-04-06T01:05:42.764Z,87.7
2018-04-06T01:06:44.136Z,87.7
2018-04-06T01:07:45.554Z,87.6
2018-04-06T01:08:46.939Z,87.8
2018-04-06T01:09:48.460Z,87.7
2018-04-06T01:10:49.876Z,87.8
2018-04-06T01:11:51.262Z,87.5
2018-04-06T01:12:52.649Z,87.7
2018-04-06T01:13:54.033Z,87.8
2018-04-06T01:14:55.414Z,87.9
2018-04-06T01:15:56.800Z,87.8
2018-04-06T01:16:58.245Z,88.0
2018-04-06T01:17:59.628Z,87.9
2018-04-06T01:19:01.065Z,87.8
2018-04-06T01:20:02.451Z,88.1
2018-04-06T01:21:03.840Z,88.1
2018-04-06T01:22:05.219Z,88.2
2018-04-06T01:23:06.602Z,87.8
2018-04-06T01:24:08.001Z,87.9
2018-04-06T01:25:09.384Z,87.9
2018-04-06T01:26:10.772Z,87.8
2018-04-06T01:27:12.153Z,87.8
2018-04-06T01:28:13.593Z,87.6
2018-04-06T01:29:14.973Z,87.6
2018-04-06T01:30:16.356Z,87.8
2018-04-06T01:31:17.737Z,87.6
2018-04-06T01:32:19.127Z,88.1
2018-04-06T01:33:20.511Z,88.2
2018-04-06T01:34:21.897Z,87.9
2018-04-06T01:35:23.284Z,88.1
2018-04-06T01:36:24.666Z,88.0
2018-04-06T01:37:26.063Z,88.0
2018-04-06T01:38:27.449Z,88.0
2018-04-06T01:39:28.884Z,88.1
2018-04-06T01:40:30.265Z,87.8
2018-04-06T01:41:31.652Z,87.7
2018-04-06T01:42:33.038Z,87.6
2018-04-06T01:43:34.419Z,87.8
2018-04-06T01:44:35.803Z,88.5
2018-04-06T01:45:37.187Z,87.5
2018-04-06T01:46:38.592Z,87.9
2018-04-06T01:47:39.978Z,88.2
2018-04-06T01:48:41.366Z,88.1
2018-04-06T01:49:42.789Z,88.0
2018-04-06T01:50:44.173Z,88.1
2018-04-06T01:51:45.552Z,88.4
2018-04-06T01:52:46.936Z,88.5
2018-04-06T01:53:48.325Z,88.4
2018-04-06T01:54:49.701Z,87.9
2018-04-06T01:55:51.087Z,87.8
2018-04-06T01:56:52.471Z,87.9
2018-04-06T01:57:53.849Z,88.5
2018-04-06T01:58:55.231Z,88.6
2018-04-06T01:59:56.684Z,88.1
2018-04-06T02:00:58.025Z,87.8
2018-04-06T02:01:59.554Z,88.3
2018-04-06T02:03:00.976Z,87.8
2018-04-06T02:04:02.363Z,88.3
2018-04-06T02:05:03.742Z,87.8
2018-04-06T02:06:05.125Z,87.9
2018-04-06T02:07:06.505Z,87.8
2018-04-06T02:08:07.894Z,88.0
2018-04-06T02:09:09.275Z,88.0
2018-04-06T02:10:10.661Z,88.0
2018-04-06T02:11:12.058Z,88.0
2018-04-06T02:12:13.427Z,88.0
2018-04-06T02:13:14.809Z,88.5
2018-04-06T02:14:16.191Z,88.3
2018-04-06T02:15:17.575Z,88.0
2018-04-06T02:16:18.980Z,88.0
2018-04-06T02:17:20.363Z,87.6
2018-04-06T02:18:21.747Z,87.8
2018-04-06T02:19:23.128Z,87.4
2018-04-06T02:20:24.511Z,87.4
2018-04-06T02:21:25.909Z,87.5
2018-04-06T02:22:27.292Z,87.3
2018-04-06T02:23:28.694Z,87.6
2018-04-06T02:24:30.131Z,87.7
2018-04-06T02:25:31.461Z,87.6
2018-04-06T02:26:32.843Z,87.6
2018-04-06T02:27:34.264Z,87.7
2018-04-06T02:28:35.644Z,87.7
2018-04-06T02:29:37.029Z,87.8
2018-04-06T02:30:38.421Z,87.7
2018-04-06T02:31:39.806Z,87.9
2018-04-06T02:32:41.185Z,87.8
2018-04-06T02:33:42.569Z,88.1
2018-04-06T02:34:43.956Z,88.0
2018-04-06T02:35:45.342Z,88.3
2018-04-06T02:36:46.746Z,88.0
2018-04-06T02:37:48.137Z,88.0
2018-04-06T02:38:49.517Z,87.5
2018-04-06T02:39:50.891Z,87.6
2018-04-06T02:40:52.288Z,87.5
2018-04-06T02:41:53.662Z,87.3
2018-04-06T02:42:55.046Z,87.8
2018-04-06T02:43:56.427Z,87.4
2018-04-06T02:44:57.808Z,87.6
2018-04-06T02:45:59.189Z,87.7
2018-04-06T02:47:00.580Z,87.6
2018-04-06T02:48:01.960Z,87.3
2018-04-06T02:49:03.366Z,87.5
2018-04-06T02:50:04.742Z,87.6
2018-04-06T02:51:06.126Z,88.0
2018-04-06T02:52:07.512Z,87.6
2018-04-06T02:53:08.894Z,87.6
2018-04-06T02:54:10.357Z,87.6
2018-04-06T02:55:11.828Z,87.6
2018-04-06T02:56:13.209Z,87.8
2018-04-06T02:57:14.607Z,87.6
2018-04-06T02:58:15.989Z,87.7
2018-04-06T02:59:17.370Z,87.5
2018-04-06T03:00:18.777Z,87.6
2018-04-06T03:01:20.147Z,87.6
2018-04-06T03:02:21.530Z,87.3
2018-04-06T03:03:22.912Z,87.5
2018-04-06T03:04:24.293Z,87.9
2018-04-06T03:05:25.674Z,87.6
2018-04-06T03:06:27.060Z,87.6
2018-04-06T03:07:28.454Z,87.8
2018-04-06T03:08:29.833Z,87.7
2018-04-06T03:09:31.217Z,87.9
2018-04-06T03:10:32.596Z,87.6
2018-04-06T03:11:34.001Z,87.8
2018-04-06T03:12:35.388Z,87.4
2018-04-06T03:13:36.768Z,87.4
2018-04-06T03:14:38.155Z,88.1
2018-04-06T03:15:39.536Z,88.3
2018-04-06T03:16:40.915Z,87.4
2018-04-06T03:17:42.298Z,87.3
2018-04-06T03:18:43.700Z,87.4
2018-04-06T03:19:45.083Z,88.0
2018-04-06T03:20:46.469Z,87.3
2018-04-06T03:21:47.850Z,87.7
2018-04-06T03:22:49.232Z,88.3
2018-04-06T03:23:50.614Z,88.2
2018-04-06T03:24:51.998Z,88.0
2018-04-06T03:25:53.441Z,88.0
2018-04-06T03:26:54.823Z,87.6
2018-04-06T03:27:56.199Z,87.7
2018-04-06T03:28:57.588Z,87.5
2018-04-06T03:29:58.990Z,87.5
2018-04-06T03:31:00.372Z,87.6
2018-04-06T03:32:01.756Z,87.6
2018-04-06T03:33:03.138Z,87.7
2018-04-06T03:34:04.518Z,87.7
2018-04-06T03:35:05.903Z,88.0
2018-04-06T03:36:07.286Z,87.4
2018-04-06T03:37:08.674Z,87.4
2018-04-06T03:38:10.064Z,87.6
2018-04-06T03:39:11.438Z,88.1
2018-04-06T03:40:12.820Z,88.0
2018-04-06T03:41:14.201Z,88.2
2018-04-06T03:42:15.602Z,88.3
2018-04-06T03:43:17.000Z,88.3
2018-04-06T03:44:18.387Z,87.8
2018-04-06T03:45:19.773Z,88.5
2018-04-06T03:46:21.157Z,88.5
2018-04-06T03:47:22.642Z,88.4
2018-04-06T03:48:24.100Z,88.3
2018-04-06T03:49:25.505Z,88.6
2018-04-06T03:50:26.864Z,88.4
2018-04-06T03:51:28.252Z,88.7
2018-04-06T03:52:29.632Z,88.1
2018-04-06T03:53:31.015Z,88.6
2018-04-06T03:54:32.395Z,87.9
2018-04-06T03:55:33.793Z,87.8
2018-04-06T03:56:35.177Z,88.4
2018-04-06T03:57:36.565Z,88.1
2018-04-06T03:58:37.943Z,88.5
2018-04-06T03:59:39.318Z,87.9
2018-04-06T04:00:40.699Z,87.9
2018-04-06T04:01:42.085Z,88.0
2018-04-06T04:02:43.491Z,88.4
2018-04-06T04:03:44.881Z,88.4
2018-04-06T04:04:46.276Z,88.1
2018-04-06T04:05:47.651Z,88.0
2018-04-06T04:06:49.050Z,87.8
2018-04-06T04:07:50.431Z,87.9
2018-04-06T04:08:51.814Z,88.1
2018-04-06T04:09:53.200Z,87.6
2018-04-06T04:10:54.580Z,88.0
2018-04-06T04:11:55.977Z,87.8
2018-04-06T04:12:57.348Z,88.0
2018-04-06T04:13:58.753Z,87.8
2018-04-06T04:15:00.140Z,88.3
2018-04-06T04:16:01.514Z,88.1
2018-04-06T04:17:02.894Z,88.1
2018-04-06T04:18:04.281Z,88.2
2018-04-06T04:19:05.662Z,88.3
2018-04-06T04:20:07.040Z,88.2
2018-04-06T04:21:08.441Z,87.7
2018-04-06T04:22:09.824Z,88.3
2018-04-06T04:23:11.206Z,87.9
2018-04-06T04:24:12.591Z,88.4
2018-04-06T04:25:13.973Z,88.4
2018-04-06T04:26:15.355Z,88.5
2018-04-06T04:27:16.739Z,88.7
2018-04-06T04:28:18.118Z,87.7
2018-04-06T04:29:19.507Z,88.5
2018-04-06T04:30:20.885Z,88.3
2018-04-06T04:31:22.265Z,88.1
2018-04-06T04:32:23.686Z,88.1
2018-04-06T04:33:25.066Z,88.3
2018-04-06T04:34:26.501Z,88.6
2018-04-06T04:35:27.830Z,88.5
2018-04-06T04:36:29.214Z,88.5
2018-04-06T04:37:30.599Z,88.5
2018-04-06T04:38:31.982Z,89.1
2018-04-06T04:39:33.502Z,88.8
2018-04-06T04:40:34.963Z,88.9
2018-04-06T04:41:36.341Z,88.9
2018-04-06T04:42:37.723Z,88.8
2018-04-06T04:43:39.121Z,88.9
2018-04-06T04:44:40.503Z,88.5
2018-04-06T04:45:41.885Z,88.6
2018-04-06T04:46:43.310Z,88.9
2018-04-06T04:47:44.661Z,88.6
2018-04-06T04:48:46.052Z,88.8
2018-04-06T04:49:47.428Z,88.6
2018-04-06T04:50:48.816Z,88.4
2018-04-06T04:51:50.199Z,88.5
2018-04-06T04:52:51.583Z,88.8
2018-04-06T04:53:52.968Z,89.3
2018-04-06T04:54:54.354Z,89.2
2018-04-06T04:55:55.742Z,89.3
2018-04-06T04:56:57.125Z,89.2
2018-04-06T04:57:58.522Z,89.2
2018-04-06T04:58:59.906Z,89.3
2018-04-06T05:00:01.298Z,89.2
2018-04-06T05:01:02.685Z,89.6
2018-04-06T05:02:04.084Z,89.7
2018-04-06T05:03:05.461Z,89.4
2018-04-06T05:04:06.843Z,89.6
2018-04-06T05:05:08.236Z,89.6
2018-04-06T05:06:09.610Z,89.3
2018-04-06T05:07:10.993Z,90.1
2018-04-06T05:08:12.389Z,90.0
2018-04-06T05:09:13.790Z,90.1
2018-04-06T05:10:15.173Z,90.0
2018-04-06T05:11:16.556Z,90.0
2018-04-06T05:12:17.944Z,89.8
2018-04-06T05:13:19.348Z,89.4
2018-04-06T05:14:20.734Z,89.6
2018-04-06T05:15:22.120Z,89.8
2018-04-06T05:16:23.512Z,90.1
2018-04-06T05:17:24.890Z,90.2
2018-04-06T05:18:26.282Z,90.2
2018-04-06T05:19:27.660Z,90.1
2018-04-06T05:20:29.064Z,89.8
2018-04-06T05:21:30.469Z,90.1
2018-04-06T05:22:31.838Z,89.8
2018-04-06T05:23:33.228Z,89.9
2018-04-06T05:24:34.618Z,90.0
2018-04-06T05:25:36.001Z,90.0
2018-04-06T05:26:37.391Z,89.8
2018-04-06T05:27:38.794Z,89.9
2018-04-06T05:28:40.246Z,90.1
2018-04-06T05:29:41.649Z,89.8
2018-04-06T05:30:43.054Z,89.9
2018-04-06T05:31:44.421Z,90.1
2018-04-06T05:32:45.890Z,90.2
2018-04-06T05:33:47.307Z,90.0
2018-04-06T05:34:48.691Z,89.9
2018-04-06T05:35:50.083Z,89.9
2018-04-06T05:36:51.463Z,90.2
2018-04-06T05:37:52.850Z,90.1
2018-04-06T05:38:54.317Z,90.2
2018-04-06T05:39:55.619Z,90.9
2018-04-06T05:40:57.001Z,90.6
2018-04-06T05:41:58.387Z,89.8
2018-04-06T05:42:59.774Z,90.0
2018-04-06T05:44:01.159Z,90.0
2018-04-06T05:45:02.551Z,90.0
2018-04-06T05:46:03.941Z,90.0
2018-04-06T05:47:05.324Z,90.4
2018-04-06T05:48:06.711Z,90.6
2018-04-06T05:49:08.095Z,90.5
2018-04-06T05:50:09.482Z,90.6
2018-04-06T05:51:10.868Z,90.5
2018-04-06T05:52:12.258Z,90.2
2018-04-06T05:53:13.677Z,90.8
2018-04-06T05:54:15.050Z,90.3
2018-04-06T05:55:16.431Z,90.3
2018-04-06T05:56:17.822Z,90.4
2018-04-06T05:57:19.211Z,90.7
2018-04-06T05:58:20.621Z,90.2
2018-04-06T05:59:21.988Z,89.8
2018-04-06T06:00:23.372Z,90.0
2018-04-06T06:01:24.756Z,90.5
2018-04-06T06:02:26.137Z,90.2
2018-04-06T06:03:27.522Z,90.6
2018-04-06T06:04:28.904Z,90.6
2018-04-06T06:05:30.302Z,90.2
2018-04-06T06:06:31.694Z,90.3
2018-04-06T06:07:33.078Z,90.6
2018-04-06T06:08:34.464Z,90.6
2018-04-06T06:09:35.844Z,90.6
2018-04-06T06:10:37.234Z,90.6
2018-04-06T06:11:38.669Z,90.4
2018-04-06T06:12:40.055Z,90.6
2018-04-06T06:13:41.440Z,90.4
2018-04-06T06:14:42.828Z,90.3
2018-04-06T06:15:44.207Z,90.6
2018-04-06T06:16:45.594Z,90.5
2018-04-06T06:17:46.980Z,91.1
2018-04-06T06:18:48.385Z,91.1
2018-04-06T06:19:49.762Z,91.0
2018-04-06T06:20:51.150Z,90.1
2018-04-06T06:21:52.531Z,90.2
2018-04-06T06:22:53.916Z,90.3
2018-04-06T06:23:55.298Z,90.4
2018-04-06T06:24:56.797Z,90.6
2018-04-06T06:25:58.244Z,90.6
2018-04-06T06:26:59.626Z,90.7
2018-04-06T06:28:01.013Z,90.5
2018-04-06T06:29:02.421Z,90.5
2018-04-06T06:30:03.781Z,90.1
2018-04-06T06:31:05.168Z,90.2
2018-04-06T06:32:06.551Z,90.1
2018-04-06T06:33:07.936Z,89.9
2018-04-06T06:34:09.321Z,89.8
2018-04-06T06:35:10.716Z,90.0
2018-04-06T06:36:12.106Z,90.0
2018-04-06T06:37:13.496Z,89.8
2018-04-06T06:38:14.882Z,90.1
2018-04-06T06:39:16.265Z,90.0
2018-04-06T06:40:17.650Z,89.9
2018-04-06T06:41:19.040Z,90.0
2018-04-06T06:42:20.423Z,90.1
2018-04-06T06:43:21.810Z,89.8
2018-04-06T06:44:23.195Z,90.1
2018-04-06T06:45:24.579Z,90.0
2018-04-06T06:46:25.968Z,90.0
2018-04-06T06:47:27.362Z,89.7
2018-04-06T06:48:28.769Z,89.8
2018-04-06T06:49:30.154Z,89.7
2018-04-06T06:50:31.538Z,89.8
2018-04-06T06:51:32.928Z,89.7
2018-04-06T06:52:34.322Z,89.5
2018-04-06T06:53:35.708Z,89.5
2018-04-06T06:54:37.093Z,89.7
2018-04-06T06:55:38.516Z,89.9
2018-04-06T06:56:39.907Z,89.9
2018-04-06T06:57:41.290Z,89.4
2018-04-06T06:58:42.676Z,89.5
2018-04-06T06:59:44.068Z,90.0
2018-04-06T07:00:45.454Z,89.7
2018-04-06T07:01:46.842Z,89.6
2018-04-06T07:02:48.250Z,89.8
2018-04-06T07:03:49.640Z,89.5
2018-04-06T07:04:51.030Z,89.4
2018-04-06T07:05:52.416Z,89.5
2018-04-06T07:06:53.859Z,88.6
2018-04-06T07:07:55.254Z,89.2
2018-04-06T07:08:56.639Z,88.2
2018-04-06T07:09:58.032Z,88.2
2018-04-06T07:10:59.417Z,88.2
2018-04-06T07:12:00.812Z,88.1
2018-04-06T07:13:02.192Z,88.2
2018-04-06T07:14:03.619Z,87.3
2018-04-06T07:15:04.978Z,87.8
2018-04-06T07:16:06.365Z,87.8
2018-04-06T07:17:07.754Z,88.1
2018-04-06T07:18:09.292Z,88.1
2018-04-06T07:19:10.685Z,87.8
2018-04-06T07:20:12.095Z,88.1
2018-04-06T07:21:13.497Z,87.8
2018-04-06T07:22:14.887Z,87.1
2018-04-06T07:23:16.307Z,87.0
2018-04-06T07:24:17.695Z,87.0
2018-04-06T07:25:19.145Z,87.2
2018-04-06T07:26:20.532Z,87.3
2018-04-06T07:27:21.917Z,86.8
2018-04-06T07:28:23.357Z,86.7
2018-04-06T07:29:24.735Z,86.0
2018-04-06T07:30:26.142Z,86.6
2018-04-06T07:31:27.529Z,86.2
2018-04-06T07:32:28.964Z,85.3
2018-04-06T07:33:30.339Z,85.3
2018-04-06T07:34:31.720Z,85.3
2018-04-06T07:35:33.115Z,85.3
2018-04-06T07:36:34.518Z,85.7
2018-04-06T07:37:35.883Z,85.6
2018-04-06T07:38:37.267Z,84.8
2018-04-06T07:39:38.750Z,85.3
2018-04-06T07:40:40.135Z,85.2
2018-04-06T07:41:41.519Z,84.8
2018-04-06T07:42:42.912Z,84.2
2018-04-06T07:43:44.326Z,84.3
2018-04-06T07:44:45.715Z,83.7
2018-04-06T07:45:47.114Z,82.8
2018-04-06T07:46:48.500Z,83.3
2018-04-06T07:47:49.883Z,83.3
2018-04-06T07:48:51.272Z,83.0
2018-04-06T07:49:52.661Z,82.7
2018-04-06T07:50:54.049Z,81.7
2018-04-06T07:51:55.440Z,81.5
2018-04-06T07:52:56.831Z,81.4
2018-04-06T07:53:58.217Z,82.1
2018-04-06T07:54:59.605Z,81.6
2018-04-06T07:56:00.994Z,80.7
2018-04-06T07:57:02.435Z,80.4
2018-04-06T07:58:03.772Z,81.2
2018-04-06T07:59:05.182Z,80.6
2018-04-06T08:00:06.570Z,80.1
2018-04-06T08:01:07.960Z,80.2
2018-04-06T08:02:09.349Z,80.1
2018-04-06T08:03:10.781Z,80.0
2018-04-06T08:04:12.167Z,78.9
2018-04-06T08:05:13.557Z,78.5
2018-04-06T08:06:14.951Z,78.6
2018-04-06T08:07:16.334Z,78.3
2018-04-06T08:08:17.725Z,78.7
2018-04-06T08:09:19.119Z,78.0
2018-04-06T08:10:20.663Z,77.5
2018-04-06T08:11:22.060Z,77.1
2018-04-06T08:12:23.481Z,76.9
2018-04-06T08:13:24.908Z,77.2
2018-04-06T08:14:26.258Z,76.9
2018-04-06T08:15:27.647Z,76.9
2018-04-06T08:16:29.039Z,76.7
2018-04-06T08:17:30.443Z,76.3
2018-04-06T08:18:31.830Z,76.0
2018-04-06T08:19:33.224Z,76.1
2018-04-06T08:20:34.616Z,76.0
2018-04-06T08:21:36.002Z,75.7
2018-04-06T08:22:37.396Z,75.5
2018-04-06T08:23:38.791Z,75.2
2018-04-06T08:24:40.180Z,74.6
2018-04-06T08:25:41.576Z,74.4
2018-04-06T08:26:42.957Z,74.5
2018-04-06T08:27:44.346Z,74.8
2018-04-06T08:28:45.738Z,74.7
2018-04-06T08:29:47.130Z,74.4
2018-04-06T08:30:48.536Z,74.5
2018-04-06T08:31:49.920Z,73.5
2018-04-06T08:32:51.311Z,72.7
2018-04-06T08:33:52.704Z,72.3
2018-04-06T08:34:54.113Z,72.1
2018-04-06T08:35:55.602Z,72.5
2018-04-06T08:36:56.994Z,71.7
2018-04-06T08:37:58.413Z,71.8
2018-04-06T08:38:59.783Z,71.8
2018-04-06T08:40:01.176Z,71.7
2018-04-06T08:41:02.592Z,71.2
2018-04-06T08:42:03.976Z,69.6
2018-04-06T08:43:05.369Z,70.1
2018-04-06T08:44:06.762Z,69.3
2018-04-06T08:45:08.160Z,69.1
2018-04-06T08:46:09.541Z,69.1
2018-04-06T08:47:10.938Z,68.7
2018-04-06T08:48:12.330Z,68.6
2018-04-06T08:49:13.722Z,68.7
2018-04-06T08:50:15.117Z,67.8
2018-04-06T08:51:16.509Z,67.6
2018-04-06T08:52:17.908Z,67.5
2018-04-06T08:53:19.294Z,67.4
2018-04-06T08:54:20.685Z,67.7
2018-04-06T08:55:22.075Z,66.8
2018-04-06T08:56:23.470Z,65.5
2018-04-06T08:57:24.863Z,65.4
2018-04-06T08:58:26.251Z,65.5
2018-04-06T08:59:27.641Z,65.4
2018-04-06T09:00:29.034Z,64.9
2018-04-06T09:01:30.429Z,65.2
2018-04-06T09:02:31.941Z,65.2
2018-04-06T09:03:33.322Z,64.5
2018-04-06T09:04:34.737Z,62.8
2018-04-06T09:05:36.132Z,61.8
2018-04-06T09:06:37.532Z,60.3
2018-04-06T09:07:38.928Z,59.2
2018-04-06T09:08:40.313Z,58.4
2018-04-06T09:09:41.705Z,56.7
2018-04-06T09:10:43.097Z,56.2
2018-04-06T09:11:44.495Z,55.2
2018-04-06T09:12:45.930Z,55.5
2018-04-06T09:13:47.284Z,54.1
2018-04-06T09:14:48.690Z,53.0
2018-04-06T09:15:50.077Z,52.8
2018-04-06T09:16:51.463Z,52.3
2018-04-06T09:17:52.857Z,50.9
2018-04-06T09:18:54.269Z,49.1
2018-04-06T09:19:55.653Z,48.7
2018-04-06T09:20:57.047Z,48.4
2018-04-06T09:21:58.435Z,47.9
2018-04-06T09:22:59.829Z,47.9
2018-04-06T09:24:01.231Z,47.5
2018-04-06T09:25:02.708Z,47.6
2018-04-06T09:26:04.121Z,47.0
2018-04-06T09:27:05.533Z,46.7
2018-04-06T09:28:06.899Z,46.8
2018-04-06T09:29:08.307Z,47.1
2018-04-06T09:30:09.704Z,46.6
2018-04-06T09:31:11.093Z,45.8
2018-04-06T09:32:12.491Z,45.4
2018-04-06T09:33:13.896Z,45.5
2018-04-06T09:34:15.293Z,45.5
2018-04-06T09:35:16.697Z,45.4
2018-04-06T09:36:18.088Z,44.8
2018-04-06T09:37:19.481Z,45.4
2018-04-06T09:38:20.875Z,44.8
2018-04-06T09:39:22.272Z,44.8
2018-04-06T09:40:23.710Z,44.0
2018-04-06T09:41:25.105Z,44.2
2018-04-06T09:42:26.501Z,44.4
2018-04-06T09:43:27.893Z,44.2
2018-04-06T09:44:29.291Z,45.0
2018-04-06T09:45:30.697Z,45.6
2018-04-06T09:46:32.088Z,45.5
2018-04-06T09:47:33.512Z,45.5
2018-04-06T09:48:34.907Z,45.4
2018-04-06T09:49:36.305Z,45.6
2018-04-06T09:50:37.697Z,45.9
2018-04-06T09:51:39.144Z,46.3
2018-04-06T09:52:40.538Z,46.9
2018-04-06T09:53:41.941Z,46.8
2018-04-06T09:54:43.434Z,46.2
2018-04-06T09:55:44.838Z,45.3
2018-04-06T09:56:46.229Z,45.5
2018-04-06T09:57:47.627Z,45.4
2018-04-06T09:58:49.020Z,46.1
2018-04-06T09:59:50.420Z,47.3
2018-04-06T10:00:51.813Z,47.4
2018-04-06T10:01:53.209Z,46.6
2018-04-06T10:02:54.682Z,46.9
2018-04-06T10:03:56.043Z,46.2
2018-04-06T10:04:57.437Z,45.7
2018-04-06T10:05:58.845Z,45.6
2018-04-06T10:07:00.244Z,45.1
2018-04-06T10:08:01.640Z,44.4
2018-04-06T10:09:03.077Z,44.4
2018-04-06T10:10:04.520Z,44.1
2018-04-06T10:11:05.914Z,44.3
2018-04-06T10:12:07.315Z,44.3
2018-04-06T10:13:08.737Z,45.1
2018-04-06T10:14:10.132Z,45.6
2018-04-06T10:15:11.532Z,46.4
2018-04-06T10:16:12.933Z,46.7
2018-04-06T10:17:14.329Z,45.5
2018-04-06T10:18:15.723Z,45.3
2018-04-06T10:19:17.114Z,45.4
2018-04-06T10:20:18.514Z,44.8
2018-04-06T10:21:19.910Z,45.6
2018-04-06T10:22:21.310Z,46.3
2018-04-06T10:23:22.747Z,46.0
2018-04-06T10:24:24.160Z,45.8
2018-04-06T10:25:25.555Z,46.4
2018-04-06T10:26:26.953Z,46.8
2018-04-06T10:27:28.398Z,46.9
2018-04-06T10:28:29.797Z,46.9
2018-04-06T10:29:31.197Z,46.9
2018-04-06T10:30:32.612Z,46.1
2018-04-06T10:31:34.017Z,46.2
2018-04-06T10:32:35.411Z,45.9
2018-04-06T10:33:36.808Z,45.6
2018-04-06T10:34:38.206Z,46.0
2018-04-06T10:35:39.606Z,45.5
2018-04-06T10:36:41.005Z,44.9
2018-04-06T10:37:42.404Z,44.3
2018-04-06T10:38:43.832Z,44.4
2018-04-06T10:39:45.232Z,44.5
2018-04-06T10:40:46.624Z,44.0
2018-04-06T10:41:48.023Z,43.9
2018-04-06T10:42:49.420Z,43.4
2018-04-06T10:43:50.818Z,42.8
2018-04-06T10:44:52.215Z,43.1
2018-04-06T10:45:53.732Z,43.2
2018-04-06T10:46:55.147Z,43.2
2018-04-06T10:47:56.547Z,43.5
2018-04-06T10:48:57.977Z,43.3
2018-04-06T10:49:59.378Z,43.4
2018-04-06T10:51:00.777Z,43.1
2018-04-06T10:52:02.178Z,42.7
2018-04-06T10:53:03.620Z,42.2
2018-04-06T10:54:05.017Z,42.6
2018-04-06T10:55:06.419Z,42.4
2018-04-06T10:56:07.817Z,41.5
2018-04-06T10:57:09.229Z,42.1
2018-04-06T10:58:10.646Z,41.8
2018-04-06T10:59:12.043Z,42.1
2018-04-06T11:00:13.459Z,41.8
2018-04-06T11:01:14.857Z,41.6
2018-04-06T11:02:16.258Z,41.3
2018-04-06T11:03:17.697Z,41.4
2018-04-06T11:04:19.112Z,41.6
2018-04-06T11:05:20.512Z,41.3
2018-04-06T11:06:21.917Z,40.5
2018-04-06T11:07:23.328Z,40.5
2018-04-06T11:08:24.721Z,40.9
2018-04-06T11:09:26.124Z,41.1
2018-04-06T11:10:27.524Z,40.5
2018-04-06T11:11:28.925Z,40.0
2018-04-06T11:12:30.338Z,39.0
2018-04-06T11:13:31.740Z,39.2
2018-04-06T11:14:33.146Z,39.0
2018-04-06T11:15:34.550Z,38.3
2018-04-06T11:16:35.945Z,39.0
2018-04-06T11:17:37.349Z,39.2
2018-04-06T11:18:38.747Z,39.2
2018-04-06T11:19:40.149Z,39.4
2018-04-06T11:20:41.550Z,38.5
2018-04-06T11:21:42.951Z,38.3
2018-04-06T11:22:44.361Z,37.4
2018-04-06T11:23:45.750Z,36.5
2018-04-06T11:24:47.150Z,36.0
2018-04-06T11:25:48.577Z,35.4
2018-04-06T11:26:49.972Z,35.9
2018-04-06T11:27:51.385Z,37.4
2018-04-06T11:28:52.769Z,37.4
2018-04-06T11:29:54.177Z,35.3
2018-04-06T11:30:55.575Z,34.8
2018-04-06T11:31:56.974Z,35.2
2018-04-06T11:32:58.383Z,34.9
2018-04-06T11:33:59.784Z,35.1
2018-04-06T11:35:01.185Z,34.4
2018-04-06T11:36:02.588Z,34.8
2018-04-06T11:37:03.985Z,34.7
2018-04-06T11:38:05.514Z,35.9
2018-04-06T11:39:06.898Z,34.6
2018-04-06T11:40:08.299Z,34.5
2018-04-06T11:41:09.698Z,33.8
2018-04-06T11:42:11.098Z,33.9
2018-04-06T11:43:12.502Z,34.4
2018-04-06T11:44:13.939Z,34.4
2018-04-06T11:45:15.316Z,34.5
2018-04-06T11:46:16.716Z,34.1
2018-04-06T11:47:18.118Z,33.9
2018-04-06T11:48:19.519Z,34.2
2018-04-06T11:49:20.920Z,34.0
2018-04-06T11:50:22.321Z,35.1
2018-04-06T11:51:23.730Z,34.5
2018-04-06T11:52:25.128Z,34.0
2018-04-06T11:53:26.529Z,34.3
2018-04-06T11:54:27.930Z,34.4
2018-04-06T11:55:29.332Z,33.7
2018-04-06T11:56:30.733Z,33.6
2018-04-06T11:57:32.138Z,34.0
2018-04-06T11:58:33.538Z,34.2
2018-04-06T11:59:34.937Z,34.0
2018-04-06T12:00:36.338Z,33.6
2018-04-06T12:01:37.739Z,33.7
2018-04-06T12:02:39.143Z,32.7
2018-04-06T12:03:40.545Z,32.7
2018-04-06T12:04:41.947Z,33.0
2018-04-06T12:05:43.349Z,33.1
2018-04-06T12:06:44.750Z,32.8
2018-04-06T12:07:46.152Z,33.0
2018-04-06T12:08:47.562Z,32.6
2018-04-06T12:09:48.968Z,32.4
2018-04-06T12:10:50.366Z,32.2
2018-04-06T12:11:51.770Z,31.5
2018-04-06T12:12:53.171Z,31.1
2018-04-06T12:13:54.569Z,31.3
2018-04-06T12:14:55.971Z,31.0
2018-04-06T12:15:57.373Z,30.3
2018-04-06T12:16:58.792Z,30.1
2018-04-06T12:18:00.193Z,31.0
2018-04-06T12:19:01.594Z,30.7
2018-04-06T12:20:02.996Z,29.9
2018-04-06T12:21:04.396Z,29.9
2018-04-06T12:22:05.794Z,29.9
2018-04-06T12:23:07.196Z,29.9
2018-04-06T12:24:08.600Z,30.9
2018-04-06T12:25:10.001Z,30.5
2018-04-06T12:26:11.404Z,30.1
2018-04-06T12:27:12.801Z,30.3
2018-04-06T12:28:14.204Z,30.1
2018-04-06T12:29:15.602Z,30.2
2018-04-06T12:30:17.035Z,29.9
2018-04-06T12:31:18.462Z,29.7
2018-04-06T12:32:19.861Z,29.5
2018-04-06T12:33:21.264Z,29.6
2018-04-06T12:34:22.666Z,30.2
2018-04-06T12:35:24.077Z,29.9
2018-04-06T12:36:25.478Z,29.9
2018-04-06T12:37:26.878Z,30.1
2018-04-06T12:38:28.276Z,29.7
2018-04-06T12:39:29.678Z,28.8
2018-04-06T12:40:31.081Z,29.2
2018-04-06T12:41:32.478Z,29.7
2018-04-06T12:42:33.880Z,30.0
2018-04-06T12:43:35.279Z,30.6
2018-04-06T12:44:36.680Z,30.4
2018-04-06T12:45:38.083Z,29.7
2018-04-06T12:46:39.484Z,29.0
2018-04-06T12:47:40.893Z,29.2
2018-04-06T12:48:42.286Z,29.1
2018-04-06T12:49:43.684Z,28.6
2018-04-06T12:50:45.085Z,29.0
2018-04-06T12:51:46.486Z,29.2
2018-04-06T12:52:47.899Z,29.1
2018-04-06T12:53:49.313Z,29.1
2018-04-06T12:54:50.710Z,28.9
2018-04-06T12:55:52.128Z,29.5
2018-04-06T12:56:53.596Z,29.0
2018-04-06T12:57:54.996Z,28.3
2018-04-06T12:58:56.398Z,27.8
2018-04-06T12:59:57.798Z,28.3
2018-04-06T13:00:59.211Z,27.8
2018-04-06T13:02:00.606Z,27.7
2018-04-06T13:03:02.067Z,27.6
2018-04-06T13:04:03.425Z,28.0
2018-04-06T13:05:04.822Z,27.9
2018-04-06T13:06:06.225Z,28.2
2018-04-06T13:07:07.623Z,28.6
2018-04-06T13:08:09.037Z,28.5
2018-04-06T13:09:10.445Z,28.2
2018-04-06T13:10:11.840Z,28.4
2018-04-06T13:11:13.241Z,27.6
2018-04-06T13:12:14.652Z,28.1
2018-04-06T13:13:16.061Z,28.3
2018-04-06T13:14:17.464Z,27.7
2018-04-06T13:15:18.864Z,27.1
2018-04-06T13:16:20.267Z,26.7
2018-04-06T13:17:21.668Z,26.5
2018-04-06T13:18:23.065Z,26.7
2018-04-06T13:19:24.466Z,26.5
2018-04-06T13:20:25.866Z,26.4
2018-04-06T13:21:27.274Z,26.8
2018-04-06T13:22:28.741Z,26.5
2018-04-06T13:23:30.154Z,26.6
2018-04-06T13:24:31.551Z,26.5
2018-04-06T13:25:32.953Z,26.4
2018-04-06T13:26:34.356Z,27.0
2018-04-06T13:27:35.756Z,28.0
2018-04-06T13:28:37.157Z,27.6
2018-04-06T13:29:38.559Z,26.7
2018-04-06T13:30:39.964Z,27.9
2018-04-06T13:31:41.364Z,27.9
2018-04-06T13:32:42.763Z,27.0
2018-04-06T13:33:44.175Z,27.0
2018-04-06T13:34:45.576Z,27.3
2018-04-06T13:35:46.979Z,26.9
2018-04-06T13:36:48.379Z,26.2